createdAt,value
2018-05-31T00:01:53.461Z,16.00
2018-05-31T00:04:20.996Z,16.10
2018-05-31T00:06:48.572Z,13.63
2018-05-31T00:09:16.087Z,13.43
2018-05-31T00:11:43.583Z,15.53
2018-05-31T00:14:11.115Z,15.57
2018-05-31T00:16:38.673Z,16.10
2018-05-31T00:19:06.231Z,13.77
2018-05-31T00:21:33.738Z,15.57
2018-05-31T00:24:01.242Z,16.67
2018-05-31T00:26:28.814Z,14.67
2018-05-31T00:28:56.317Z,15.60
2018-05-31T00:31:23.833Z,17.83
2018-05-31T00:33:51.400Z,17.67
2018-05-31T00:36:18.923Z,15.13
2018-05-31T00:38:46.493Z,15.37
2018-05-31T00:41:14.022Z,15.33
2018-05-31T00:43:41.593Z,19.57
2018-05-31T00:46:09.153Z,14.13
2018-05-31T00:48:36.669Z,12.17
2018-05-31T00:51:04.201Z,20.17
2018-05-31T00:53:31.737Z,15.67
2018-05-31T00:56:05.018Z,12.53
2018-05-31T00:58:32.499Z,14.13
2018-05-31T01:01:00.030Z,13.23
2018-05-31T01:03:27.600Z,15.87
2018-05-31T01:05:55.116Z,14.73
2018-05-31T01:08:22.668Z,19.60
2018-05-31T01:10:50.278Z,20.73
2018-05-31T01:13:17.810Z,14.13
2018-05-31T01:15:45.334Z,18.03
2018-05-31T01:18:12.924Z,20.27
2018-05-31T01:20:40.465Z,16.73
2018-05-31T01:23:08.026Z,15.43
2018-05-31T01:25:35.529Z,18.03
2018-05-31T01:28:03.045Z,16.37
2018-05-31T01:30:30.560Z,17.67
2018-05-31T01:32:58.112Z,20.47
2018-05-31T01:35:25.653Z,18.67
2018-05-31T01:37:53.227Z,22.10
2018-05-31T01:40:20.797Z,17.10
2018-05-31T01:42:48.691Z,22.00
2018-05-31T01:45:16.249Z,23.23
2018-05-31T01:47:43.798Z,20.60
2018-05-31T01:50:11.412Z,20.40
2018-05-31T01:52:38.935Z,27.10
2018-05-31T01:55:06.468Z,23.27
2018-05-31T01:57:34.022Z,26.57
2018-05-31T02:00:01.552Z,24.90
2018-05-31T02:02:29.224Z,27.43
2018-05-31T02:04:56.745Z,28.73
2018-05-31T02:07:24.270Z,26.10
2018-05-31T02:09:51.785Z,23.30
2018-05-31T02:12:19.362Z,27.70
2018-05-31T02:14:47.541Z,26.67
2018-05-31T02:17:15.070Z,28.10
2018-05-31T02:19:42.656Z,23.53
2018-05-31T02:22:10.173Z,24.10
2018-05-31T02:24:37.744Z,20.63
2018-05-31T02:27:05.313Z,27.60
2018-05-31T02:29:32.832Z,23.00
2018-05-31T02:32:00.519Z,20.03
2018-05-31T02:34:28.046Z,23.13
2018-05-31T02:36:55.564Z,25.13
2018-05-31T02:39:23.092Z,24.10
2018-05-31T02:41:50.634Z,23.87
2018-05-31T02:44:18.262Z,26.73
2018-05-31T02:46:45.828Z,20.93
2018-05-31T02:49:13.354Z,22.23
2018-05-31T02:51:40.868Z,22.83
2018-05-31T02:54:08.414Z,22.90
2018-05-31T02:56:35.925Z,21.63
2018-05-31T02:59:03.554Z,22.90
2018-05-31T03:01:31.082Z,20.47
2018-05-31T03:03:58.640Z,19.53
2018-05-31T03:06:26.177Z,19.37
2018-05-31T03:08:53.691Z,17.30
2018-05-31T03:11:21.272Z,19.37
2018-05-31T03:13:48.809Z,21.03
2018-05-31T03:16:16.346Z,22.53
2018-05-31T03:18:43.916Z,20.10
2018-05-31T03:21:11.459Z,23.03
2018-05-31T03:23:38.966Z,18.67
2018-05-31T03:26:06.493Z,17.87
2018-05-31T03:28:33.993Z,14.87
2018-05-31T03:31:01.512Z,17.63
2018-05-31T03:33:29.053Z,15.43
2018-05-31T03:35:56.590Z,15.73
2018-05-31T03:38:24.180Z,16.17
2018-05-31T03:40:51.699Z,14.93
2018-05-31T03:43:19.226Z,15.10
2018-05-31T03:45:46.785Z,13.57
2018-05-31T03:48:14.309Z,12.97
2018-05-31T03:50:41.894Z,15.23
2018-05-31T03:53:09.408Z,13.87
2018-05-31T03:55:36.946Z,14.40
2018-05-31T03:58:04.488Z,15.67
2018-05-31T04:00:32.040Z,14.87
2018-05-31T04:02:59.634Z,15.50
2018-05-31T04:05:27.241Z,18.43
2018-05-31T04:07:54.771Z,14.40
2018-05-31T04:10:22.303Z,12.77
2018-05-31T04:12:49.817Z,14.10
2018-05-31T04:15:17.368Z,16.87
2018-05-31T04:17:44.926Z,14.37
2018-05-31T04:20:12.438Z,14.90
2018-05-31T04:22:40.019Z,13.80
2018-05-31T04:25:07.593Z,15.47
2018-05-31T04:27:35.173Z,15.90
2018-05-31T04:30:02.778Z,15.37
2018-05-31T04:32:30.291Z,21.03
2018-05-31T04:34:57.818Z,15.80
2018-05-31T04:37:25.332Z,15.37
2018-05-31T04:39:52.867Z,18.00
2018-05-31T04:42:20.442Z,17.23
2018-05-31T04:44:48.010Z,16.60
2018-05-31T04:47:15.527Z,12.53
2018-05-31T04:49:43.101Z,11.57
2018-05-31T04:52:10.629Z,19.20
2018-05-31T04:54:38.186Z,10.73
2018-05-31T04:57:05.693Z,10.53
2018-05-31T04:59:33.200Z,9.27
2018-05-31T05:02:00.723Z,12.37
2018-05-31T05:04:28.244Z,9.70
2018-05-31T05:06:55.789Z,11.50
2018-05-31T05:09:23.320Z,11.60
2018-05-31T05:11:50.841Z,8.37
2018-05-31T05:14:18.342Z,8.53
2018-05-31T05:16:45.852Z,11.70
2018-05-31T05:19:13.394Z,10.47
2018-05-31T05:21:41.844Z,11.00
2018-05-31T05:24:09.351Z,9.20
2018-05-31T05:26:37.529Z,11.07
2018-05-31T05:29:05.037Z,7.70
2018-05-31T05:31:32.532Z,9.70
2018-05-31T05:34:00.058Z,7.57
2018-05-31T05:36:27.599Z,11.53
2018-05-31T05:38:55.109Z,9.53
2018-05-31T05:41:22.624Z,15.97
2018-05-31T05:43:50.193Z,11.17
2018-05-31T05:46:17.729Z,11.10
2018-05-31T05:48:45.233Z,8.00
2018-05-31T05:51:12.750Z,8.43
2018-05-31T05:53:40.422Z,9.47
2018-05-31T05:56:07.942Z,6.80
2018-05-31T05:58:35.502Z,10.30
2018-05-31T06:01:03.040Z,7.37
2018-05-31T06:03:30.553Z,7.17
2018-05-31T06:05:58.052Z,8.47
2018-05-31T06:08:25.557Z,12.70
2018-05-31T06:10:53.080Z,6.93
2018-05-31T06:13:20.587Z,9.53
2018-05-31T06:15:48.104Z,6.27
2018-05-31T06:18:15.637Z,7.23
2018-05-31T06:20:43.182Z,5.83
2018-05-31T06:23:10.677Z,8.43
2018-05-31T06:25:38.210Z,11.27
2018-05-31T06:28:05.755Z,10.60
2018-05-31T06:30:33.320Z,7.53
2018-05-31T06:33:00.867Z,8.33
2018-05-31T06:35:28.391Z,6.87
2018-05-31T06:37:55.884Z,7.00
2018-05-31T06:40:23.366Z,6.10
2018-05-31T06:42:51.048Z,5.07
2018-05-31T06:45:18.592Z,8.70
2018-05-31T06:47:46.109Z,6.47
2018-05-31T06:50:13.610Z,6.93
2018-05-31T06:52:41.149Z,8.13
2018-05-31T06:55:08.649Z,8.10
2018-05-31T06:57:36.141Z,5.17
2018-05-31T07:00:03.722Z,8.33
2018-05-31T07:02:31.325Z,6.23
2018-05-31T07:04:58.849Z,6.30
2018-05-31T07:07:26.368Z,11.30
2018-05-31T07:09:53.866Z,14.17
2018-05-31T07:12:21.422Z,5.43
2018-05-31T07:14:48.931Z,7.90
2018-05-31T07:17:16.471Z,5.90
2018-05-31T07:19:43.970Z,8.63
2018-05-31T07:22:11.461Z,5.40
2018-05-31T07:24:38.963Z,7.47
2018-05-31T07:27:06.503Z,5.73
2018-05-31T07:29:33.988Z,6.93
2018-05-31T07:32:01.479Z,8.30
2018-05-31T07:34:29.364Z,9.97
2018-05-31T07:36:56.893Z,6.63
2018-05-31T07:39:24.397Z,5.37
2018-05-31T07:41:51.911Z,4.33
2018-05-31T07:44:19.436Z,5.80
2018-05-31T07:46:47.002Z,5.23
2018-05-31T07:49:14.497Z,6.17
2018-05-31T07:51:41.994Z,7.77
2018-05-31T07:54:09.482Z,6.70
2018-05-31T07:56:36.986Z,10.90
2018-05-31T07:59:04.504Z,6.60
2018-05-31T08:01:32.026Z,4.97
2018-05-31T08:03:59.523Z,7.40
2018-05-31T08:06:27.345Z,8.90
2018-05-31T08:08:54.881Z,7.97
2018-05-31T08:11:22.379Z,6.17
2018-05-31T08:13:49.890Z,5.03
2018-05-31T08:16:17.393Z,5.17
2018-05-31T08:18:44.884Z,4.90
2018-05-31T08:21:12.457Z,6.33
2018-05-31T08:23:40.009Z,7.23
2018-05-31T08:26:07.500Z,3.87
2018-05-31T08:28:34.993Z,8.27
2018-05-31T08:31:02.627Z,8.87
2018-05-31T08:33:30.170Z,4.50
2018-05-31T08:35:57.692Z,6.07
2018-05-31T08:38:25.290Z,6.00
2018-05-31T08:40:52.811Z,5.43
2018-05-31T08:43:20.345Z,6.23
2018-05-31T08:45:47.889Z,6.97
2018-05-31T08:48:15.390Z,3.97
2018-05-31T08:50:42.965Z,9.53
2018-05-31T08:53:10.475Z,6.93
2018-05-31T08:55:37.998Z,7.20
2018-05-31T08:58:05.505Z,6.50
2018-05-31T09:00:33.054Z,4.50
2018-05-31T09:03:00.557Z,6.93
2018-05-31T09:05:28.114Z,7.67
2018-05-31T09:07:55.625Z,5.10
2018-05-31T09:10:23.246Z,6.10
2018-05-31T09:12:50.747Z,3.40
2018-05-31T09:15:18.296Z,5.17
2018-05-31T09:17:45.853Z,5.77
2018-05-31T09:20:13.479Z,7.53
2018-05-31T09:22:41.274Z,10.57
2018-05-31T09:25:08.825Z,6.33
2018-05-31T09:27:36.345Z,6.17
2018-05-31T09:30:03.891Z,3.93
2018-05-31T09:32:31.385Z,5.80
2018-05-31T09:34:58.945Z,4.83
2018-05-31T09:37:26.413Z,6.90
2018-05-31T09:39:53.904Z,8.20
2018-05-31T09:42:21.493Z,6.37
2018-05-31T09:44:49.003Z,5.67
2018-05-31T09:47:16.520Z,4.03
2018-05-31T09:49:44.058Z,5.87
2018-05-31T09:52:11.546Z,5.27
2018-05-31T09:54:39.058Z,8.17
2018-05-31T09:57:06.578Z,2.90
2018-05-31T09:59:34.069Z,6.13
2018-05-31T10:02:01.576Z,4.17
2018-05-31T10:04:29.122Z,4.53
2018-05-31T10:06:56.611Z,6.50
2018-05-31T10:09:24.125Z,4.80
2018-05-31T10:11:51.622Z,5.77
2018-05-31T10:14:19.171Z,4.30
2018-05-31T10:16:46.669Z,7.47
2018-05-31T10:19:14.180Z,3.97
2018-05-31T10:21:41.720Z,4.60
2018-05-31T10:24:09.553Z,4.20
2018-05-31T10:26:37.044Z,3.90
2018-05-31T10:29:04.536Z,3.43
2018-05-31T10:31:32.049Z,6.27
2018-05-31T10:33:59.558Z,3.77
2018-05-31T10:36:27.068Z,3.57
2018-05-31T10:38:54.548Z,4.13
2018-05-31T10:41:22.094Z,3.43
2018-05-31T10:43:49.621Z,3.10
2018-05-31T10:46:17.203Z,3.33
2018-05-31T10:48:44.754Z,3.43
2018-05-31T10:51:12.253Z,4.20
2018-05-31T10:53:39.807Z,3.87
2018-05-31T10:56:07.314Z,4.10
2018-05-31T10:58:34.795Z,5.47
2018-05-31T11:01:02.295Z,4.13
2018-05-31T11:03:29.787Z,5.27
2018-05-31T11:05:57.277Z,7.67
2018-05-31T11:08:24.776Z,4.40
2018-05-31T11:10:52.278Z,8.60
2018-05-31T11:13:19.831Z,5.77
2018-05-31T11:15:47.322Z,5.23
2018-05-31T11:18:14.866Z,3.20
2018-05-31T11:20:42.358Z,5.03
2018-05-31T11:23:10.070Z,4.50
2018-05-31T11:25:37.618Z,3.90
2018-05-31T11:28:05.138Z,5.27
2018-05-31T11:30:32.652Z,4.03
2018-05-31T11:33:00.153Z,5.10
2018-05-31T11:35:27.674Z,3.50
2018-05-31T11:37:55.175Z,6.10
2018-05-31T11:40:22.667Z,4.43
2018-05-31T11:42:50.157Z,5.07
2018-05-31T11:45:17.662Z,5.10
2018-05-31T11:47:45.152Z,4.73
2018-05-31T11:50:13.380Z,4.17
2018-05-31T11:52:40.859Z,3.47
2018-05-31T11:55:08.381Z,5.80
2018-05-31T11:57:35.943Z,4.50
2018-05-31T12:00:03.505Z,3.60
2018-05-31T12:02:30.995Z,5.07
2018-05-31T12:04:58.488Z,6.30
2018-05-31T12:07:26.072Z,4.50
2018-05-31T12:09:53.582Z,3.30
2018-05-31T12:12:21.117Z,5.07
2018-05-31T12:14:48.626Z,5.27
2018-05-31T12:17:16.133Z,3.37
2018-05-31T12:19:43.628Z,6.57
2018-05-31T12:22:11.169Z,3.70
2018-05-31T12:24:38.675Z,7.63
2018-05-31T12:27:06.188Z,5.73
2018-05-31T12:29:33.699Z,5.47
2018-05-31T12:32:01.255Z,3.90
2018-05-31T12:34:28.762Z,6.30
2018-05-31T12:36:56.288Z,6.20
2018-05-31T12:39:23.794Z,7.20
2018-05-31T12:41:51.284Z,4.53
2018-05-31T12:44:18.782Z,5.03
2018-05-31T12:46:46.377Z,3.20
2018-05-31T12:49:13.869Z,2.97
2018-05-31T12:51:41.389Z,3.50
2018-05-31T12:54:09.028Z,5.33
2018-05-31T12:56:36.525Z,4.37
2018-05-31T12:59:04.026Z,3.10
2018-05-31T13:01:31.531Z,3.83
2018-05-31T13:03:59.053Z,4.30
2018-05-31T13:06:26.553Z,3.90
2018-05-31T13:08:54.083Z,5.90
2018-05-31T13:11:21.584Z,3.90
2018-05-31T13:13:49.094Z,4.10
2018-05-31T13:16:16.584Z,10.53
2018-05-31T13:18:44.114Z,7.60
2018-05-31T13:21:11.629Z,16.90
2018-05-31T13:23:39.145Z,35.17
2018-05-31T13:26:06.731Z,46.97
2018-05-31T13:28:34.240Z,15.93
2018-05-31T13:31:01.741Z,6.07
2018-05-31T13:33:29.257Z,5.00
2018-05-31T13:35:56.754Z,10.70
2018-05-31T13:38:24.248Z,4.30
2018-05-31T13:40:52.068Z,5.87
2018-05-31T13:43:19.593Z,6.07
2018-05-31T13:45:47.103Z,7.57
2018-05-31T13:48:14.602Z,5.20
2018-05-31T13:50:42.113Z,7.20
2018-05-31T13:53:09.683Z,3.67
2018-05-31T13:55:37.183Z,14.20
2018-05-31T13:58:04.754Z,9.63
2018-05-31T14:00:32.240Z,8.60
2018-05-31T14:02:59.780Z,18.77
2018-05-31T14:05:27.298Z,7.03
2018-05-31T14:07:54.820Z,6.10
2018-05-31T14:10:22.321Z,5.70
2018-05-31T14:12:49.812Z,4.73
2018-05-31T14:15:17.317Z,5.37
2018-05-31T14:17:44.876Z,7.97
2018-05-31T14:20:12.369Z,5.63
2018-05-31T14:22:39.875Z,5.00
2018-05-31T14:25:07.396Z,5.40
2018-05-31T14:27:34.934Z,5.47
2018-05-31T14:30:02.593Z,7.23
2018-05-31T14:32:30.103Z,5.80
2018-05-31T14:34:57.613Z,6.37
2018-05-31T14:37:25.133Z,5.40
2018-05-31T14:39:52.581Z,6.80
2018-05-31T14:42:20.080Z,6.37
2018-05-31T14:44:47.638Z,6.67
2018-05-31T14:47:15.153Z,7.47
2018-05-31T14:49:42.636Z,4.93
2018-05-31T14:52:10.145Z,7.10
2018-05-31T14:54:37.660Z,6.47
2018-05-31T14:57:05.183Z,3.67
2018-05-31T14:59:32.692Z,2.77
2018-05-31T15:02:00.253Z,10.27
2018-05-31T15:04:27.772Z,2.73
2018-05-31T15:06:55.277Z,2.10
2018-05-31T15:09:22.764Z,3.57
2018-05-31T15:11:50.266Z,3.50
2018-05-31T15:14:17.777Z,2.97
2018-05-31T15:16:45.372Z,2.70
2018-05-31T15:19:12.873Z,2.00
2018-05-31T15:21:40.387Z,5.43
2018-05-31T15:24:07.898Z,2.07
2018-05-31T15:26:35.389Z,2.60
2018-05-31T15:29:02.909Z,6.03
2018-05-31T15:31:30.406Z,5.60
2018-05-31T15:33:57.949Z,5.60
2018-05-31T15:36:25.462Z,4.10
2018-05-31T15:38:52.947Z,5.57
2018-05-31T15:41:20.469Z,4.13
2018-05-31T15:43:47.965Z,5.47
2018-05-31T15:46:15.475Z,4.97
2018-05-31T15:48:42.986Z,4.20
2018-05-31T15:51:10.507Z,3.30
2018-05-31T15:53:38.023Z,4.03
2018-05-31T15:56:05.530Z,5.40
2018-05-31T15:58:33.299Z,3.93
2018-05-31T16:01:00.795Z,2.80
2018-05-31T16:03:28.350Z,8.07
2018-05-31T16:05:55.902Z,3.70
2018-05-31T16:08:23.397Z,4.50
2018-05-31T16:10:50.908Z,6.37
2018-05-31T16:13:18.422Z,5.90
2018-05-31T16:15:45.932Z,5.27
2018-05-31T16:18:13.497Z,2.87
2018-05-31T16:20:40.987Z,2.80
2018-05-31T16:23:08.478Z,4.17
2018-05-31T16:25:36.149Z,3.40
2018-05-31T16:28:03.652Z,5.17
2018-05-31T16:30:31.148Z,6.57
2018-05-31T16:32:58.651Z,3.07
2018-05-31T16:35:26.195Z,5.10
2018-05-31T16:37:54.297Z,2.70
2018-05-31T16:40:21.786Z,4.40
2018-05-31T16:42:49.294Z,2.97
2018-05-31T16:45:16.791Z,4.23
2018-05-31T16:47:44.311Z,3.07
2018-05-31T16:50:11.901Z,4.30
2018-05-31T16:52:39.389Z,2.80
2018-05-31T16:55:06.869Z,3.20
2018-05-31T16:57:34.371Z,4.70
2018-05-31T17:00:01.883Z,3.33
2018-05-31T17:02:29.382Z,3.63
2018-05-31T17:04:56.935Z,2.80
2018-05-31T17:07:24.441Z,6.23
2018-05-31T17:09:51.984Z,2.90
2018-05-31T17:12:19.484Z,3.70
2018-05-31T17:14:46.989Z,4.77
2018-05-31T17:17:14.504Z,3.00
2018-05-31T17:19:42.002Z,4.60
2018-05-31T17:22:09.495Z,2.73
2018-05-31T17:24:36.996Z,6.67
2018-05-31T17:27:04.482Z,4.77
2018-05-31T17:29:31.973Z,9.93
2018-05-31T17:31:59.460Z,2.53
2018-05-31T17:34:26.954Z,3.10
2018-05-31T17:36:54.469Z,3.90
2018-05-31T17:39:21.963Z,3.13
2018-05-31T17:41:49.926Z,4.40
2018-05-31T17:44:17.433Z,8.13
2018-05-31T17:46:44.924Z,5.63
2018-05-31T17:49:12.463Z,5.67
2018-05-31T17:51:39.956Z,2.77
2018-05-31T17:54:07.584Z,3.03
2018-05-31T17:56:35.104Z,4.57
2018-05-31T17:59:02.665Z,2.90
2018-05-31T18:01:30.153Z,3.10
2018-05-31T18:03:57.650Z,3.77
2018-05-31T18:06:25.149Z,3.67
2018-05-31T18:08:52.641Z,4.83
2018-05-31T18:11:20.174Z,4.30
2018-05-31T18:13:47.726Z,4.50
2018-05-31T18:16:15.276Z,2.63
2018-05-31T18:18:42.782Z,3.00
2018-05-31T18:21:10.366Z,3.00
2018-05-31T18:23:37.866Z,2.67
2018-05-31T18:26:05.504Z,3.93
2018-05-31T18:28:33.027Z,4.83
2018-05-31T18:31:00.545Z,4.23
2018-05-31T18:33:28.048Z,5.43
2018-05-31T18:35:55.541Z,7.57
2018-05-31T18:38:23.053Z,6.43
2018-05-31T18:40:50.548Z,4.93
2018-05-31T18:43:18.064Z,5.30
2018-05-31T18:45:45.704Z,4.40
2018-05-31T18:48:13.199Z,3.27
2018-05-31T18:50:40.710Z,6.03
2018-05-31T18:53:08.206Z,5.03
2018-05-31T18:55:35.749Z,4.60
2018-05-31T18:58:03.245Z,5.20
2018-05-31T19:00:30.741Z,4.50
2018-05-31T19:02:58.253Z,6.70
2018-05-31T19:05:25.759Z,8.00
2018-05-31T19:07:53.337Z,3.20
2018-05-31T19:10:21.034Z,5.93
2018-05-31T19:12:54.306Z,5.63
2018-05-31T19:15:21.937Z,6.13
2018-05-31T19:17:49.460Z,6.53
2018-05-31T19:20:16.972Z,2.70
2018-05-31T19:22:44.411Z,5.27
2018-05-31T19:25:17.533Z,4.83
2018-05-31T19:27:45.021Z,4.60
2018-05-31T19:30:18.278Z,5.87
2018-05-31T19:32:45.763Z,5.47
2018-05-31T19:35:18.901Z,4.40
2018-05-31T19:37:46.401Z,6.17
2018-05-31T19:40:13.894Z,6.03
2018-05-31T19:42:47.241Z,3.97
2018-05-31T19:45:14.797Z,5.07
2018-05-31T19:47:42.261Z,5.90
2018-05-31T19:50:09.770Z,4.17
2018-05-31T19:52:42.879Z,8.17
2018-05-31T19:55:10.382Z,6.20
2018-05-31T19:57:53.645Z,4.67
2018-05-31T20:00:26.680Z,6.80
2018-05-31T20:02:59.851Z,8.80
2018-05-31T20:05:27.313Z,5.27
2018-05-31T20:07:54.829Z,4.57
2018-05-31T20:10:22.328Z,3.73
2018-05-31T20:12:49.856Z,5.03
2018-05-31T20:15:17.304Z,3.93
2018-05-31T20:17:44.781Z,10.10
2018-05-31T20:20:12.324Z,4.53
2018-05-31T20:22:39.773Z,7.77
2018-05-31T20:25:07.249Z,8.57
2018-05-31T20:27:34.697Z,4.50
2018-05-31T20:30:02.219Z,3.60
2018-05-31T20:32:29.739Z,5.47
2018-05-31T20:34:57.218Z,4.27
2018-05-31T20:37:24.736Z,4.70
2018-05-31T20:39:52.210Z,5.90
2018-05-31T20:42:19.805Z,4.80
2018-05-31T20:44:47.309Z,5.50
2018-05-31T20:47:14.861Z,2.70
2018-05-31T20:49:42.306Z,3.77
2018-05-31T20:52:10.143Z,3.83
2018-05-31T20:54:37.641Z,4.43
2018-05-31T20:57:05.134Z,3.50
2018-05-31T20:59:32.574Z,5.37
2018-05-31T21:02:00.071Z,5.77
2018-05-31T21:04:27.516Z,5.10
2018-05-31T21:06:54.966Z,4.67
2018-05-31T21:09:22.450Z,5.97
2018-05-31T21:11:49.986Z,4.10
2018-05-31T21:14:17.480Z,6.47
2018-05-31T21:16:44.990Z,5.43
2018-05-31T21:19:12.480Z,7.70
2018-05-31T21:21:39.916Z,8.97
2018-05-31T21:24:07.828Z,5.57
2018-05-31T21:26:35.272Z,4.83
2018-05-31T21:29:02.734Z,7.40
2018-05-31T21:31:30.236Z,3.97
2018-05-31T21:33:57.677Z,5.43
2018-05-31T21:36:25.137Z,5.53
2018-05-31T21:38:52.590Z,5.10
2018-05-31T21:41:20.034Z,6.93
2018-05-31T21:43:47.480Z,9.50
2018-05-31T21:46:14.965Z,5.97
2018-05-31T21:48:42.445Z,7.07
2018-05-31T21:51:09.892Z,4.10
2018-05-31T21:53:37.384Z,7.33
2018-05-31T21:56:04.881Z,4.87
2018-05-31T21:58:32.389Z,8.00
2018-05-31T22:00:59.888Z,5.03
2018-05-31T22:03:27.338Z,8.20
2018-05-31T22:05:54.785Z,5.87
2018-05-31T22:08:22.229Z,4.57
2018-05-31T22:10:49.701Z,6.10
2018-05-31T22:13:17.144Z,4.30
2018-05-31T22:15:44.688Z,9.33
2018-05-31T22:18:12.200Z,7.83
2018-05-31T22:20:39.637Z,3.67
2018-05-31T22:23:07.090Z,6.33
2018-05-31T22:25:34.654Z,6.40
2018-05-31T22:28:02.774Z,4.93
2018-05-31T22:30:30.221Z,4.70
2018-05-31T22:32:57.732Z,4.50
2018-05-31T22:35:25.212Z,4.57
2018-05-31T22:37:52.714Z,5.73
2018-05-31T22:40:20.230Z,7.23
2018-05-31T22:42:47.685Z,4.07
2018-05-31T22:45:15.173Z,7.67
2018-05-31T22:47:42.679Z,4.77
2018-05-31T22:50:10.113Z,6.73
2018-05-31T22:52:37.606Z,5.33
2018-05-31T22:55:05.088Z,9.30
2018-05-31T22:57:32.581Z,5.97
2018-05-31T23:00:00.128Z,6.00
2018-05-31T23:02:27.577Z,8.07
2018-05-31T23:04:55.120Z,7.63
2018-05-31T23:07:22.604Z,7.67
2018-05-31T23:09:50.103Z,6.80
2018-05-31T23:12:17.654Z,5.80
2018-05-31T23:14:45.157Z,4.73
2018-05-31T23:17:12.648Z,5.40
2018-05-31T23:19:40.140Z,4.83
2018-05-31T23:22:07.646Z,14.37
2018-05-31T23:24:35.214Z,6.63
2018-05-31T23:27:02.729Z,7.40
2018-05-31T23:29:30.270Z,6.63
2018-05-31T23:31:57.909Z,9.90
2018-05-31T23:34:25.421Z,7.50
2018-05-31T23:36:52.910Z,8.73
2018-05-31T23:39:20.404Z,8.07
2018-05-31T23:41:47.908Z,8.60
2018-05-31T23:44:15.424Z,12.27
2018-05-31T23:46:42.955Z,11.00
2018-05-31T23:49:10.466Z,8.17
2018-05-31T23:51:37.953Z,7.70
2018-05-31T23:54:05.446Z,7.70
2018-05-31T23:56:32.937Z,7.03
2018-05-31T23:59:00.440Z,7.40
